createdAt,value
2022-12-19T00:00:55.297Z,982.09
2022-12-19T00:01:55.498Z,982.02
2022-12-19T00:02:55.409Z,982.07
2022-12-19T00:03:55.328Z,982.05
2022-12-19T00:04:55.247Z,982.07
2022-12-19T00:05:55.271Z,982.08
2022-12-19T00:06:55.260Z,982.08
2022-12-19T00:07:55.225Z,982.05
2022-12-19T00:08:55.195Z,982.04
2022-12-19T00:09:55.222Z,982.04
2022-12-19T00:10:55.173Z,981.99
2022-12-19T00:11:55.192Z,982.02
2022-12-19T00:12:55.165Z,982.05
2022-12-19T00:13:55.152Z,982.02
2022-12-19T00:14:55.127Z,981.98
2022-12-19T00:15:55.192Z,982.02
2022-12-19T00:16:55.109Z,982.04
2022-12-19T00:17:55.131Z,982.05
2022-12-19T00:18:55.467Z,982.03
2022-12-19T00:19:55.095Z,982.00
2022-12-19T00:20:55.035Z,981.98
2022-12-19T00:21:55.079Z,982.00
2022-12-19T00:22:55.016Z,981.93
2022-12-19T00:23:55.034Z,981.90
2022-12-19T00:24:55.015Z,981.91
2022-12-19T00:25:55.001Z,981.91
2022-12-19T00:26:55.020Z,981.88
2022-12-19T00:27:54.974Z,981.86
2022-12-19T00:28:54.941Z,981.92
2022-12-19T00:29:54.950Z,981.95
2022-12-19T00:30:55.213Z,981.98
2022-12-19T00:31:54.999Z,981.98
2022-12-19T00:32:54.919Z,981.97
2022-12-19T00:33:54.916Z,982.07
2022-12-19T00:34:54.888Z,982.03
2022-12-19T00:35:54.886Z,982.00
2022-12-19T00:36:54.854Z,982.01
2022-12-19T00:37:54.864Z,982.02
2022-12-19T00:38:54.815Z,982.00
2022-12-19T00:39:54.856Z,981.99
2022-12-19T00:40:54.817Z,981.97
2022-12-19T00:41:54.794Z,981.98
2022-12-19T00:42:54.773Z,981.90
2022-12-19T00:43:54.773Z,981.96
2022-12-19T00:44:54.769Z,981.95
2022-12-19T00:45:54.783Z,981.93
2022-12-19T00:46:54.732Z,981.91
2022-12-19T00:47:54.732Z,981.91
2022-12-19T00:48:54.702Z,981.90
2022-12-19T00:49:54.726Z,981.90
2022-12-19T00:50:54.698Z,981.89
2022-12-19T00:51:54.708Z,981.84
2022-12-19T00:52:54.644Z,981.76
2022-12-19T00:53:54.657Z,981.68
2022-12-19T00:54:54.617Z,981.75
2022-12-19T00:55:54.678Z,981.76
2022-12-19T00:56:54.594Z,981.82
2022-12-19T00:57:54.598Z,981.81
2022-12-19T00:58:54.572Z,981.74
2022-12-19T00:59:54.574Z,981.75
2022-12-19T01:00:54.642Z,981.77
2022-12-19T01:01:54.744Z,981.72
2022-12-19T01:02:54.667Z,981.74
2022-12-19T01:04:26.678Z,981.74
2022-12-19T01:04:55.494Z,981.72
2022-12-19T01:05:54.501Z,981.75
2022-12-19T01:06:54.501Z,981.72
2022-12-19T01:07:55.469Z,981.77
2022-12-19T01:08:54.449Z,981.76
2022-12-19T01:09:54.459Z,981.77
2022-12-19T01:10:54.425Z,981.77
2022-12-19T01:11:54.436Z,981.84
2022-12-19T01:12:54.444Z,981.90
2022-12-19T01:13:54.444Z,981.82
2022-12-19T01:14:54.373Z,981.67
2022-12-19T01:15:55.439Z,981.71
2022-12-19T01:16:54.343Z,981.82
2022-12-19T01:17:54.353Z,981.81
2022-12-19T01:18:54.371Z,981.70
2022-12-19T01:19:54.342Z,981.69
2022-12-19T01:20:54.300Z,981.74
2022-12-19T01:21:54.311Z,981.82
2022-12-19T01:22:54.291Z,981.79
2022-12-19T01:23:54.285Z,981.73
2022-12-19T01:24:54.266Z,981.78
2022-12-19T01:25:54.267Z,981.80
2022-12-19T01:26:54.275Z,981.80
2022-12-19T01:27:54.235Z,981.77
2022-12-19T01:28:54.231Z,981.83
2022-12-19T01:29:54.242Z,981.82
2022-12-19T01:30:54.177Z,981.84
2022-12-19T01:31:54.227Z,981.76
2022-12-19T01:32:54.143Z,981.80
2022-12-19T01:33:54.593Z,981.86
2022-12-19T01:34:54.129Z,981.76
2022-12-19T01:35:54.159Z,981.61
2022-12-19T01:36:54.131Z,981.64
2022-12-19T01:37:55.831Z,981.53
2022-12-19T01:38:55.078Z,981.61
2022-12-19T01:39:54.078Z,981.81
2022-12-19T01:40:54.048Z,981.87
2022-12-19T01:41:54.079Z,981.84
2022-12-19T01:42:54.046Z,981.79
2022-12-19T01:43:54.033Z,981.84
2022-12-19T01:44:53.996Z,981.88
2022-12-19T01:45:54.056Z,981.92
2022-12-19T01:46:53.995Z,981.89
2022-12-19T01:47:53.985Z,981.80
2022-12-19T01:48:53.965Z,981.76
2022-12-19T01:49:53.958Z,981.84
2022-12-19T01:50:58.265Z,981.86
2022-12-19T01:51:54.932Z,981.81
2022-12-19T01:52:53.892Z,981.84
2022-12-19T01:53:53.911Z,981.86
2022-12-19T01:54:53.872Z,981.89
2022-12-19T01:55:53.896Z,981.86
2022-12-19T01:56:53.837Z,981.88
2022-12-19T01:57:53.826Z,981.92
2022-12-19T01:58:58.936Z,981.96
2022-12-19T01:59:54.804Z,981.96
2022-12-19T02:00:53.883Z,981.91
2022-12-19T02:01:53.924Z,981.90
2022-12-19T02:02:53.868Z,981.90
2022-12-19T02:03:53.764Z,981.90
2022-12-19T02:04:53.733Z,981.84
2022-12-19T02:05:53.731Z,981.81
2022-12-19T02:06:53.735Z,981.82
2022-12-19T02:07:53.714Z,981.94
2022-12-19T02:08:53.714Z,981.83
2022-12-19T02:09:57.233Z,981.76
2022-12-19T02:10:53.659Z,981.66
2022-12-19T02:11:53.646Z,981.61
2022-12-19T02:12:53.678Z,981.68
2022-12-19T02:13:53.607Z,981.65
2022-12-19T02:14:53.626Z,981.62
2022-12-19T02:15:53.598Z,981.57
2022-12-19T02:16:53.632Z,981.59
2022-12-19T02:17:53.613Z,981.65
2022-12-19T02:18:53.587Z,981.60
2022-12-19T02:19:53.539Z,981.68
2022-12-19T02:20:53.570Z,981.68
2022-12-19T02:21:54.850Z,981.74
2022-12-19T02:22:53.521Z,981.78
2022-12-19T02:23:53.508Z,981.74
2022-12-19T02:24:53.493Z,981.78
2022-12-19T02:25:56.777Z,981.71
2022-12-19T02:26:53.476Z,981.66
2022-12-19T02:27:53.440Z,981.63
2022-12-19T02:28:53.481Z,981.60
2022-12-19T02:29:53.417Z,981.61
2022-12-19T02:30:53.438Z,981.64
2022-12-19T02:31:53.486Z,981.60
2022-12-19T02:32:53.396Z,981.60
2022-12-19T02:33:53.397Z,981.58
2022-12-19T02:34:53.377Z,981.59
2022-12-19T02:35:53.353Z,981.58
2022-12-19T02:36:53.352Z,981.54
2022-12-19T02:37:53.951Z,981.47
2022-12-19T02:38:53.346Z,981.51
2022-12-19T02:39:53.348Z,981.48
2022-12-19T02:40:55.607Z,981.52
2022-12-19T02:41:53.568Z,981.53
2022-12-19T02:42:53.294Z,981.53
2022-12-19T02:43:58.853Z,981.55
2022-12-19T02:44:54.308Z,981.56
2022-12-19T02:45:53.277Z,981.55
2022-12-19T02:46:53.238Z,981.53
2022-12-19T02:47:53.220Z,981.55
2022-12-19T02:49:00.252Z,981.54
2022-12-19T02:49:53.922Z,981.55
2022-12-19T02:50:53.221Z,981.62
2022-12-19T02:51:53.171Z,981.57
2022-12-19T02:52:53.333Z,981.60
2022-12-19T02:53:53.122Z,981.60
2022-12-19T02:54:53.139Z,981.54
2022-12-19T02:55:54.106Z,981.56
2022-12-19T02:56:53.134Z,981.54
2022-12-19T02:57:53.078Z,981.52
2022-12-19T02:58:53.080Z,981.51
2022-12-19T02:59:53.079Z,981.58
2022-12-19T03:00:53.113Z,981.56
2022-12-19T03:01:53.126Z,981.59
2022-12-19T03:03:00.758Z,981.59
2022-12-19T03:03:54.018Z,981.56
2022-12-19T03:04:53.781Z,981.58
2022-12-19T03:05:53.009Z,981.59
2022-12-19T03:06:52.993Z,981.62
2022-12-19T03:07:53.010Z,981.57
2022-12-19T03:08:52.990Z,981.59
2022-12-19T03:09:52.969Z,981.64
2022-12-19T03:10:52.994Z,981.61
2022-12-19T03:11:52.978Z,981.59
2022-12-19T03:12:52.927Z,981.58
2022-12-19T03:13:52.880Z,981.57
2022-12-19T03:14:52.911Z,981.54
2022-12-19T03:15:52.961Z,981.58
2022-12-19T03:16:52.955Z,981.55
2022-12-19T03:17:52.903Z,981.54
2022-12-19T03:18:52.855Z,981.54
2022-12-19T03:19:53.758Z,981.54
2022-12-19T03:20:52.836Z,981.55
2022-12-19T03:21:52.821Z,981.60
2022-12-19T03:22:53.174Z,981.60
2022-12-19T03:23:52.766Z,981.60
2022-12-19T03:24:52.775Z,981.58
2022-12-19T03:25:52.733Z,981.62
2022-12-19T03:26:52.774Z,981.65
2022-12-19T03:27:52.713Z,981.63
2022-12-19T03:28:52.725Z,981.67
2022-12-19T03:29:52.692Z,981.65
2022-12-19T03:30:52.745Z,981.67
2022-12-19T03:31:52.695Z,981.69
2022-12-19T03:32:52.700Z,981.74
2022-12-19T03:33:52.639Z,981.82
2022-12-19T03:34:52.641Z,981.82
2022-12-19T03:35:52.617Z,981.79
2022-12-19T03:36:52.718Z,981.77
2022-12-19T03:37:52.588Z,981.74
2022-12-19T03:38:52.646Z,981.75
2022-12-19T03:39:52.574Z,981.77
2022-12-19T03:40:52.586Z,981.80
2022-12-19T03:41:52.560Z,981.84
2022-12-19T03:42:52.715Z,981.82
2022-12-19T03:43:52.576Z,981.83
2022-12-19T03:44:52.537Z,981.86
2022-12-19T03:45:52.528Z,981.86
2022-12-19T03:46:52.542Z,981.87
2022-12-19T03:47:52.495Z,981.83
2022-12-19T03:48:52.515Z,981.90
2022-12-19T03:49:52.446Z,981.94
2022-12-19T03:50:52.446Z,981.96
2022-12-19T03:51:57.789Z,981.93
2022-12-19T03:52:53.445Z,981.93
2022-12-19T03:53:52.504Z,981.90
2022-12-19T03:54:52.758Z,981.82
2022-12-19T03:55:52.378Z,981.75
2022-12-19T03:56:52.371Z,981.78
2022-12-19T03:57:52.360Z,981.74
2022-12-19T03:58:52.365Z,981.76
2022-12-19T03:59:52.321Z,981.73
2022-12-19T04:00:53.080Z,981.77
2022-12-19T04:01:52.386Z,981.76
2022-12-19T04:02:52.311Z,981.75
2022-12-19T04:03:52.383Z,981.73
2022-12-19T04:04:52.280Z,981.78
2022-12-19T04:05:52.268Z,981.74
2022-12-19T04:06:52.303Z,981.71
2022-12-19T04:07:52.236Z,981.73
2022-12-19T04:08:52.347Z,981.77
2022-12-19T04:09:52.207Z,981.80
2022-12-19T04:10:52.215Z,981.80
2022-12-19T04:11:52.214Z,981.80
2022-12-19T04:12:52.195Z,981.77
2022-12-19T04:13:52.187Z,981.82
2022-12-19T04:14:52.232Z,981.81
2022-12-19T04:15:52.194Z,981.86
2022-12-19T04:16:52.132Z,981.82
2022-12-19T04:17:52.129Z,981.81
2022-12-19T04:18:52.122Z,981.75
2022-12-19T04:19:52.114Z,981.71
2022-12-19T04:20:52.161Z,981.71
2022-12-19T04:21:52.090Z,981.78
2022-12-19T04:22:52.052Z,981.72
2022-12-19T04:23:52.031Z,981.75
2022-12-19T04:24:52.045Z,981.71
2022-12-19T04:25:52.102Z,981.71
2022-12-19T04:26:52.057Z,981.70
2022-12-19T04:27:52.013Z,981.71
2022-12-19T04:28:52.014Z,981.67
2022-12-19T04:29:51.946Z,981.69
2022-12-19T04:30:52.060Z,981.66
2022-12-19T04:31:52.072Z,981.66
2022-12-19T04:32:51.975Z,981.68
2022-12-19T04:33:51.922Z,981.66
2022-12-19T04:34:51.941Z,981.69
2022-12-19T04:35:51.886Z,981.65
2022-12-19T04:36:51.898Z,981.65
2022-12-19T04:37:51.863Z,981.63
2022-12-19T04:38:51.919Z,981.64
2022-12-19T04:39:51.998Z,981.64
2022-12-19T04:40:51.828Z,981.65
2022-12-19T04:41:51.797Z,981.61
2022-12-19T04:42:51.860Z,981.68
2022-12-19T04:43:52.565Z,981.60
2022-12-19T04:44:51.930Z,981.62
2022-12-19T04:45:57.158Z,981.60
2022-12-19T04:46:52.796Z,981.56
2022-12-19T04:47:52.520Z,981.54
2022-12-19T04:48:52.694Z,981.50
2022-12-19T04:49:51.738Z,981.50
2022-12-19T04:50:51.735Z,981.49
2022-12-19T04:51:51.670Z,981.53
2022-12-19T04:52:56.901Z,981.55
2022-12-19T04:53:52.651Z,981.49
2022-12-19T04:54:51.668Z,981.49
2022-12-19T04:55:51.695Z,981.54
2022-12-19T04:56:51.639Z,981.51
2022-12-19T04:57:51.601Z,981.54
2022-12-19T04:58:51.597Z,981.50
2022-12-19T04:59:51.575Z,981.53
2022-12-19T05:00:51.615Z,981.51
2022-12-19T05:01:51.756Z,981.49
2022-12-19T05:02:51.881Z,981.48
2022-12-19T05:03:55.770Z,981.43
2022-12-19T05:04:52.545Z,981.39
2022-12-19T05:05:51.529Z,981.36
2022-12-19T05:06:51.504Z,981.35
2022-12-19T05:07:51.490Z,981.39
2022-12-19T05:08:51.484Z,981.43
2022-12-19T05:09:51.483Z,981.40
2022-12-19T05:10:51.488Z,981.46
2022-12-19T05:11:51.428Z,981.51
2022-12-19T05:12:51.429Z,981.50
2022-12-19T05:13:51.397Z,981.51
2022-12-19T05:14:51.455Z,981.44
2022-12-19T05:15:51.449Z,981.45
2022-12-19T05:16:54.767Z,981.41
2022-12-19T05:17:52.353Z,981.39
2022-12-19T05:18:51.352Z,981.38
2022-12-19T05:19:51.321Z,981.37
2022-12-19T05:20:51.369Z,981.39
2022-12-19T05:21:51.301Z,981.35
2022-12-19T05:22:51.301Z,981.34
2022-12-19T05:23:51.303Z,981.31
2022-12-19T05:24:51.281Z,981.35
2022-12-19T05:25:51.292Z,981.34
2022-12-19T05:26:52.236Z,981.29
2022-12-19T05:27:51.236Z,981.26
2022-12-19T05:28:51.244Z,981.30
2022-12-19T05:29:51.198Z,981.31
2022-12-19T05:30:52.653Z,981.28
2022-12-19T05:31:51.224Z,981.25
2022-12-19T05:32:51.230Z,981.21
2022-12-19T05:33:51.148Z,981.20
2022-12-19T05:34:51.182Z,981.23
2022-12-19T05:35:51.516Z,981.19
2022-12-19T05:36:51.174Z,981.19
2022-12-19T05:37:51.332Z,981.22
2022-12-19T05:38:51.098Z,981.22
2022-12-19T05:39:51.081Z,981.23
2022-12-19T05:40:51.068Z,981.31
2022-12-19T05:41:51.060Z,981.31
2022-12-19T05:42:51.091Z,981.32
2022-12-19T05:43:51.033Z,981.30
2022-12-19T05:44:51.048Z,981.27
2022-12-19T05:45:50.985Z,981.21
2022-12-19T05:46:52.016Z,981.28
2022-12-19T05:47:50.999Z,981.29
2022-12-19T05:48:50.991Z,981.29
2022-12-19T05:49:50.942Z,981.26
2022-12-19T05:50:51.111Z,981.27
2022-12-19T05:51:50.926Z,981.26
2022-12-19T05:52:50.960Z,981.22
2022-12-19T05:53:51.208Z,981.22
2022-12-19T05:54:51.001Z,981.24
2022-12-19T05:55:50.957Z,981.20
2022-12-19T05:56:50.887Z,981.20
2022-12-19T05:57:50.835Z,981.23
2022-12-19T05:58:50.893Z,981.22
2022-12-19T05:59:50.983Z,981.21
2022-12-19T06:00:50.838Z,981.26
2022-12-19T06:01:50.957Z,981.24
2022-12-19T06:02:50.863Z,981.28
2022-12-19T06:03:50.848Z,981.26
2022-12-19T06:04:50.815Z,981.29
2022-12-19T06:05:50.744Z,981.29
2022-12-19T06:06:50.790Z,981.25
2022-12-19T06:07:50.728Z,981.17
2022-12-19T06:08:50.745Z,981.20
2022-12-19T06:09:50.740Z,981.17
2022-12-19T06:10:50.730Z,981.15
2022-12-19T06:11:50.695Z,981.16
2022-12-19T06:12:50.707Z,981.18
2022-12-19T06:13:50.636Z,981.20
2022-12-19T06:14:50.633Z,981.25
2022-12-19T06:15:50.673Z,981.23
2022-12-19T06:16:50.687Z,981.18
2022-12-19T06:17:50.686Z,981.19
2022-12-19T06:18:50.593Z,981.21
2022-12-19T06:19:50.782Z,981.21
2022-12-19T06:20:50.579Z,981.23
2022-12-19T06:21:50.552Z,981.23
2022-12-19T06:22:50.525Z,981.20
2022-12-19T06:23:50.520Z,981.20
2022-12-19T06:24:50.497Z,981.18
2022-12-19T06:25:50.544Z,981.21
2022-12-19T06:26:50.487Z,981.20
2022-12-19T06:27:51.435Z,981.18
2022-12-19T06:28:50.449Z,981.21
2022-12-19T06:29:50.550Z,981.25
2022-12-19T06:30:50.456Z,981.32
2022-12-19T06:31:50.442Z,981.24
2022-12-19T06:32:50.419Z,981.24
2022-12-19T06:33:50.451Z,981.21
2022-12-19T06:35:06.645Z,981.27
2022-12-19T06:35:51.439Z,981.30
2022-12-19T06:36:50.329Z,981.31
2022-12-19T06:37:50.388Z,981.35
2022-12-19T06:38:50.330Z,981.36
2022-12-19T06:39:51.267Z,981.34
2022-12-19T06:40:50.285Z,981.35
2022-12-19T06:41:50.309Z,981.27
2022-12-19T06:42:50.257Z,981.28
2022-12-19T06:43:53.309Z,981.22
2022-12-19T06:44:50.254Z,981.24
2022-12-19T06:45:50.284Z,981.25
2022-12-19T06:46:50.192Z,981.26
2022-12-19T06:47:50.278Z,981.27
2022-12-19T06:48:50.121Z,981.29
2022-12-19T06:49:50.203Z,981.34
2022-12-19T06:50:50.110Z,981.32
2022-12-19T06:51:50.115Z,981.31
2022-12-19T06:52:50.076Z,981.28
2022-12-19T06:53:50.086Z,981.22
2022-12-19T06:54:50.173Z,981.21
2022-12-19T06:55:50.371Z,981.17
2022-12-19T06:56:50.026Z,981.20
2022-12-19T06:57:50.027Z,981.14
2022-12-19T06:58:50.013Z,981.15
2022-12-19T06:59:50.030Z,981.17
2022-12-19T07:00:50.092Z,981.21
2022-12-19T07:01:50.049Z,981.18
2022-12-19T07:02:50.731Z,981.22
2022-12-19T07:03:50.069Z,981.24
2022-12-19T07:04:49.929Z,981.25
2022-12-19T07:05:49.939Z,981.23
2022-12-19T07:06:49.940Z,981.24
2022-12-19T07:07:49.918Z,981.20
2022-12-19T07:08:49.878Z,981.17
2022-12-19T07:09:49.893Z,981.23
2022-12-19T07:10:49.982Z,981.19
2022-12-19T07:11:50.068Z,981.12
2022-12-19T07:12:49.823Z,981.12
2022-12-19T07:13:49.923Z,981.14
2022-12-19T07:14:53.406Z,981.17
2022-12-19T07:15:49.842Z,981.18
2022-12-19T07:16:49.810Z,981.22
2022-12-19T07:17:50.062Z,981.27
2022-12-19T07:18:49.751Z,981.26
2022-12-19T07:19:49.808Z,981.29
2022-12-19T07:20:49.809Z,981.26
2022-12-19T07:21:49.720Z,981.29
2022-12-19T07:22:49.717Z,981.21
2022-12-19T07:23:49.731Z,981.14
2022-12-19T07:24:49.669Z,981.10
2022-12-19T07:25:50.716Z,981.08
2022-12-19T07:26:49.654Z,981.02
2022-12-19T07:27:50.355Z,981.08
2022-12-19T07:28:49.702Z,981.09
2022-12-19T07:29:49.646Z,981.08
2022-12-19T07:30:49.648Z,981.10
2022-12-19T07:31:49.625Z,981.08
2022-12-19T07:32:49.662Z,981.05
2022-12-19T07:33:49.637Z,981.10
2022-12-19T07:34:49.551Z,981.11
2022-12-19T07:35:49.662Z,981.09
2022-12-19T07:36:49.512Z,981.07
2022-12-19T07:37:50.253Z,981.07
2022-12-19T07:38:49.519Z,981.10
2022-12-19T07:39:49.536Z,981.08
2022-12-19T07:40:49.765Z,981.13
2022-12-19T07:41:49.477Z,981.15
2022-12-19T07:42:49.479Z,981.19
2022-12-19T07:43:49.454Z,981.21
2022-12-19T07:44:49.433Z,981.14
2022-12-19T07:45:49.442Z,981.08
2022-12-19T07:46:49.392Z,981.08
2022-12-19T07:47:49.453Z,981.05
2022-12-19T07:48:50.331Z,981.03
2022-12-19T07:49:49.433Z,981.04
2022-12-19T07:50:49.348Z,981.05
2022-12-19T07:51:49.377Z,981.00
2022-12-19T07:52:49.377Z,981.01
2022-12-19T07:53:49.316Z,980.99
2022-12-19T07:54:49.297Z,980.97
2022-12-19T07:55:49.324Z,980.93
2022-12-19T07:56:50.252Z,980.97
2022-12-19T07:57:49.277Z,980.93
2022-12-19T07:58:49.239Z,980.97
2022-12-19T07:59:49.286Z,980.97
2022-12-19T08:00:49.275Z,980.98
2022-12-19T08:01:49.358Z,981.01
2022-12-19T08:02:49.331Z,981.02
2022-12-19T08:03:49.263Z,981.07
2022-12-19T08:04:49.276Z,981.07
2022-12-19T08:05:49.173Z,981.12
2022-12-19T08:06:49.171Z,981.09
2022-12-19T08:07:49.216Z,981.08
2022-12-19T08:08:49.104Z,981.08
2022-12-19T08:09:49.118Z,981.10
2022-12-19T08:10:49.078Z,981.12
2022-12-19T08:11:49.859Z,981.16
2022-12-19T08:12:49.057Z,981.21
2022-12-19T08:13:49.078Z,981.24
2022-12-19T08:14:51.629Z,981.26
2022-12-19T08:15:50.036Z,981.24
2022-12-19T08:17:19.406Z,981.26
2022-12-19T08:17:50.115Z,981.28
2022-12-19T08:18:49.065Z,981.22
2022-12-19T08:19:48.984Z,981.29
2022-12-19T08:20:48.955Z,981.29
2022-12-19T08:21:49.046Z,981.27
2022-12-19T08:22:49.009Z,981.24
2022-12-19T08:23:48.949Z,981.29
2022-12-19T08:24:48.912Z,981.31
2022-12-19T08:25:48.948Z,981.34
2022-12-19T08:26:48.977Z,981.35
2022-12-19T08:27:48.878Z,981.34
2022-12-19T08:28:48.890Z,981.36
2022-12-19T08:29:48.854Z,981.41
2022-12-19T08:30:49.578Z,981.43
2022-12-19T08:31:48.927Z,981.41
2022-12-19T08:32:48.805Z,981.40
2022-12-19T08:33:48.806Z,981.30
2022-12-19T08:34:48.808Z,981.30
2022-12-19T08:35:48.834Z,981.27
2022-12-19T08:36:48.832Z,981.27
2022-12-19T08:37:48.771Z,981.20
2022-12-19T08:38:48.726Z,981.18
2022-12-19T08:39:48.768Z,981.29
2022-12-19T08:40:48.723Z,981.27
2022-12-19T08:41:48.737Z,981.32
2022-12-19T08:42:48.669Z,981.34
2022-12-19T08:43:48.680Z,981.32
2022-12-19T08:44:48.643Z,981.36
2022-12-19T08:45:48.709Z,981.32
2022-12-19T08:46:50.522Z,981.30
2022-12-19T08:47:48.653Z,981.27
2022-12-19T08:48:48.630Z,981.26
2022-12-19T08:49:55.679Z,981.21
2022-12-19T08:50:48.570Z,981.24
2022-12-19T08:51:49.340Z,981.19
2022-12-19T08:52:50.245Z,981.19
2022-12-19T08:53:48.584Z,981.14
2022-12-19T08:54:48.525Z,981.15
2022-12-19T08:55:48.538Z,981.12
2022-12-19T08:56:48.499Z,981.16
2022-12-19T08:57:48.520Z,981.14
2022-12-19T08:58:48.471Z,981.12
2022-12-19T08:59:48.505Z,981.11
2022-12-19T09:00:54.730Z,981.12
2022-12-19T09:01:49.659Z,981.08
2022-12-19T09:02:48.565Z,981.08
2022-12-19T09:03:52.016Z,981.08
2022-12-19T09:05:58.010Z,981.06
2022-12-19T09:06:01.422Z,981.04
2022-12-19T09:06:49.455Z,981.05
2022-12-19T09:07:48.398Z,981.07
2022-12-19T09:08:48.372Z,981.12
2022-12-19T09:09:48.355Z,981.13
2022-12-19T09:10:48.368Z,981.08
2022-12-19T09:11:48.525Z,981.07
2022-12-19T09:12:54.383Z,981.07
2022-12-19T09:13:49.298Z,981.00
2022-12-19T09:14:48.307Z,980.91
2022-12-19T09:15:49.278Z,980.91
2022-12-19T09:16:48.288Z,980.86
2022-12-19T09:17:48.252Z,980.87
2022-12-19T09:18:48.970Z,980.88
2022-12-19T09:19:48.510Z,980.90
2022-12-19T09:20:48.227Z,980.90
2022-12-19T09:21:48.243Z,980.84
2022-12-19T09:22:48.180Z,980.85
2022-12-19T09:23:48.207Z,980.93
2022-12-19T09:24:48.150Z,981.00
2022-12-19T09:25:48.182Z,981.03
2022-12-19T09:26:48.158Z,981.07
2022-12-19T09:28:25.753Z,981.10
2022-12-19T09:28:49.098Z,981.12
2022-12-19T09:29:48.107Z,981.14
2022-12-19T09:30:48.171Z,981.10
2022-12-19T09:31:48.114Z,981.09
2022-12-19T09:32:49.047Z,981.08
2022-12-19T09:33:48.126Z,981.09
2022-12-19T09:34:48.052Z,981.09
2022-12-19T09:35:48.047Z,981.12
2022-12-19T09:36:48.057Z,981.13
2022-12-19T09:37:48.067Z,981.13
2022-12-19T09:38:48.005Z,981.13
2022-12-19T09:39:48.027Z,981.13
2022-12-19T09:40:47.954Z,981.16
2022-12-19T09:41:47.992Z,981.22
2022-12-19T09:42:47.942Z,981.19
2022-12-19T09:43:47.938Z,981.12
2022-12-19T09:44:47.903Z,981.16
2022-12-19T09:45:47.992Z,981.20
2022-12-19T09:46:47.869Z,981.28
2022-12-19T09:47:47.935Z,981.23
2022-12-19T09:48:54.023Z,981.20
2022-12-19T09:49:48.906Z,981.20
2022-12-19T09:50:47.824Z,981.18
2022-12-19T09:51:47.857Z,981.15
2022-12-19T09:52:47.796Z,981.07
2022-12-19T09:53:53.769Z,981.05
2022-12-19T09:54:48.787Z,980.95
2022-12-19T09:55:47.808Z,980.84
2022-12-19T09:56:47.739Z,980.81
2022-12-19T09:57:47.793Z,980.80
2022-12-19T09:58:47.717Z,980.79
2022-12-19T09:59:49.946Z,980.82
2022-12-19T10:00:47.740Z,980.83
2022-12-19T10:01:48.914Z,980.85
2022-12-19T10:02:47.846Z,980.84
2022-12-19T10:03:47.710Z,980.91
2022-12-19T10:04:47.737Z,980.91
2022-12-19T10:07:07.837Z,980.88
2022-12-19T10:07:11.331Z,980.88
2022-12-19T10:08:07.529Z,980.97
2022-12-19T10:10:06.625Z,981.02
2022-12-19T10:12:36.082Z,981.01
2022-12-19T10:12:42.331Z,980.98
2022-12-19T10:12:45.316Z,980.98
2022-12-19T10:12:51.401Z,980.98
2022-12-19T10:13:48.927Z,980.96
2022-12-19T10:14:47.517Z,980.95
2022-12-19T10:15:47.566Z,980.96
2022-12-19T10:17:15.893Z,981.01
2022-12-19T10:17:48.501Z,980.93
2022-12-19T10:18:51.079Z,980.96
2022-12-19T10:19:48.513Z,980.94
2022-12-19T10:20:47.497Z,980.99
2022-12-19T10:22:48.432Z,981.04
2022-12-19T10:23:47.511Z,981.05
2022-12-19T10:24:56.420Z,980.99
2022-12-19T10:25:48.419Z,981.02
2022-12-19T10:26:47.434Z,981.01
2022-12-19T10:27:59.122Z,980.95
2022-12-19T10:28:48.388Z,980.88
2022-12-19T10:29:47.379Z,980.88
2022-12-19T10:30:47.404Z,980.88
2022-12-19T10:31:47.399Z,980.84
2022-12-19T10:32:48.320Z,980.87
2022-12-19T10:33:47.315Z,980.88
2022-12-19T10:34:47.275Z,980.90
2022-12-19T10:35:47.296Z,980.92
2022-12-19T10:37:49.819Z,980.86
2022-12-19T10:38:51.302Z,980.88
2022-12-19T10:39:47.215Z,980.86
2022-12-19T10:40:47.224Z,980.77
2022-12-19T10:41:47.176Z,980.80
2022-12-19T10:42:47.195Z,980.83
2022-12-19T10:43:47.158Z,980.81
2022-12-19T10:44:47.208Z,980.85
2022-12-19T10:45:47.426Z,980.86
2022-12-19T10:46:47.216Z,980.80
2022-12-19T10:47:47.104Z,980.81
2022-12-19T10:48:47.137Z,980.77
2022-12-19T10:49:47.089Z,980.79
2022-12-19T10:50:47.134Z,980.77
2022-12-19T10:51:47.075Z,980.72
2022-12-19T10:52:47.128Z,980.70
2022-12-19T10:53:47.019Z,980.72
2022-12-19T10:54:47.090Z,980.70
2022-12-19T10:55:47.107Z,980.66
2022-12-19T10:56:47.037Z,980.59
2022-12-19T10:57:46.967Z,980.54
2022-12-19T10:58:47.093Z,980.49
2022-12-19T10:59:46.960Z,980.53
2022-12-19T11:00:46.958Z,980.56
2022-12-19T11:01:54.207Z,980.55
2022-12-19T11:02:48.170Z,980.54
2022-12-19T11:03:47.060Z,980.54
2022-12-19T11:04:46.968Z,980.57
2022-12-19T11:05:47.393Z,980.54
2022-12-19T11:06:46.963Z,980.51
2022-12-19T11:07:46.884Z,980.50
2022-12-19T11:08:46.853Z,980.49
2022-12-19T11:09:59.968Z,980.50
2022-12-19T11:13:20.863Z,980.43
2022-12-19T11:16:04.718Z,980.45
2022-12-19T11:16:44.615Z,980.43
2022-12-19T11:18:18.605Z,980.45
2022-12-19T11:19:58.131Z,980.45
2022-12-19T11:21:26.936Z,980.44
2022-12-19T11:26:51.856Z,980.47
2022-12-19T11:27:46.816Z,980.45
2022-12-19T11:29:16.740Z,980.48
2022-12-19T11:29:27.536Z,980.46
2022-12-19T11:29:35.297Z,980.50
2022-12-19T11:29:38.650Z,980.46
2022-12-19T11:29:38.939Z,980.47
2022-12-19T11:29:42.762Z,980.55
2022-12-19T11:29:46.777Z,980.43
2022-12-19T11:30:35.300Z,980.46
2022-12-19T11:30:41.123Z,980.38
2022-12-19T11:30:48.368Z,980.53
2022-12-19T11:30:49.025Z,980.42
2022-12-19T11:32:10.335Z,980.38
2022-12-19T11:32:47.942Z,980.34
2022-12-19T11:33:46.518Z,980.35
2022-12-19T11:34:46.535Z,980.33
2022-12-19T11:35:46.573Z,980.32
2022-12-19T11:36:46.489Z,980.35
2022-12-19T11:37:46.489Z,980.40
2022-12-19T11:38:46.475Z,980.35
2022-12-19T11:39:46.439Z,980.39
2022-12-19T11:40:49.274Z,980.40
2022-12-19T11:41:46.440Z,980.37
2022-12-19T11:42:46.434Z,980.41
2022-12-19T11:43:46.988Z,980.38
2022-12-19T11:44:46.398Z,980.33
2022-12-19T11:45:46.347Z,980.31
2022-12-19T11:46:46.352Z,980.31
2022-12-19T11:47:46.365Z,980.31
2022-12-19T11:48:46.338Z,980.28
2022-12-19T11:49:46.311Z,980.26
2022-12-19T11:50:46.306Z,980.24
2022-12-19T11:51:46.282Z,980.22
2022-12-19T11:53:47.369Z,980.19
2022-12-19T11:54:46.293Z,980.17
2022-12-19T11:55:46.236Z,980.10
2022-12-19T11:56:46.232Z,980.08
2022-12-19T11:57:46.208Z,980.05
2022-12-19T11:58:46.253Z,980.04
2022-12-19T11:59:46.171Z,980.05
2022-12-19T12:00:46.199Z,980.12
2022-12-19T12:01:46.209Z,980.13
2022-12-19T12:02:46.213Z,980.10
2022-12-19T12:03:57.791Z,980.13
2022-12-19T12:04:47.165Z,980.10
2022-12-19T12:05:46.108Z,980.06
2022-12-19T12:06:46.134Z,980.09
2022-12-19T12:09:28.243Z,980.03
2022-12-19T12:11:24.838Z,980.04
2022-12-19T12:12:02.395Z,980.08
2022-12-19T12:15:53.451Z,980.03
2022-12-19T12:18:43.306Z,980.04
2022-12-19T12:18:57.487Z,980.09
2022-12-19T12:24:49.657Z,980.02
2022-12-19T12:26:33.505Z,979.98
2022-12-19T12:27:55.203Z,979.91
2022-12-19T12:29:25.620Z,979.96
2022-12-19T12:30:14.633Z,979.95
2022-12-19T12:30:59.080Z,979.91
2022-12-19T12:31:04.716Z,979.92
2022-12-19T12:31:05.471Z,979.95
2022-12-19T12:31:09.709Z,979.86
2022-12-19T12:31:26.256Z,979.92
2022-12-19T12:31:40.797Z,979.96
2022-12-19T12:31:44.390Z,979.88
2022-12-19T12:31:45.688Z,979.94
2022-12-19T12:31:46.930Z,979.92
2022-12-19T12:31:51.156Z,979.93
2022-12-19T12:31:52.923Z,979.95
2022-12-19T12:31:53.068Z,979.92
2022-12-19T12:32:36.257Z,979.92
2022-12-19T12:35:38.188Z,979.91
2022-12-19T12:35:38.454Z,979.89
2022-12-19T12:35:40.779Z,979.89